sensor_id;sensor_type;location;lat;lon;timestamp;temperature;humidity
34837;DHT22;21053;50.848;4.652;2023-08-24T00:00:12;19.10;99.90
34837;DHT22;21053;50.848;4.652;2023-08-24T00:02:39;19.10;99.90
34837;DHT22;21053;50.848;4.652;2023-08-24T00:05:05;19.20;99.90
34837;DHT22;21053;50.848;4.652;2023-08-24T00:07:31;19.10;99.90
34837;DHT22;21053;50.848;4.652;2023-08-24T00:09:58;19.00;99.90
34837;DHT22;21053;50.848;4.652;2023-08-24T00:12:24;18.90;99.90
34837;DHT22;21053;50.848;4.652;2023-08-24T00:14:49;18.70;99.90
34837;DHT22;21053;50.848;4.652;2023-08-24T00:17:15;18.80;99.90
34837;DHT22;21053;50.848;4.652;2023-08-24T00:19:41;19.00;99.90
34837;DHT22;21053;50.848;4.652;2023-08-24T00:22:06;18.80;99.90
34837;DHT22;21053;50.848;4.652;2023-08-24T00:24:32;18.90;99.90
34837;DHT22;21053;50.848;4.652;2023-08-24T00:27:00;18.90;99.90
34837;DHT22;21053;50.848;4.652;2023-08-24T00:29:26;18.70;99.90
34837;DHT22;21053;50.848;4.652;2023-08-24T00:31:51;18.70;99.90
34837;DHT22;21053;50.848;4.652;2023-08-24T00:34:17;18.60;99.90
34837;DHT22;21053;50.848;4.652;2023-08-24T00:36:43;18.70;99.90
34837;DHT22;21053;50.848;4.652;2023-08-24T00:39:11;18.80;99.90
34837;DHT22;21053;50.848;4.652;2023-08-24T00:41:37;19.00;99.90
34837;DHT22;21053;50.848;4.652;2023-08-24T00:44:06;19.10;99.90
34837;DHT22;21053;50.848;4.652;2023-08-24T00:46:34;19.30;99.90
34837;DHT22;21053;50.848;4.652;2023-08-24T00:49:00;19.30;99.90
34837;DHT22;21053;50.848;4.652;2023-08-24T00:51:26;19.20;99.90
34837;DHT22;21053;50.848;4.652;2023-08-24T00:53:52;19.10;99.90
34837;DHT22;21053;50.848;4.652;2023-08-24T00:56:18;18.90;99.90
34837;DHT22;21053;50.848;4.652;2023-08-24T00:58:54;18.90;99.90
34837;DHT22;21053;50.848;4.652;2023-08-24T01:01:21;18.90;99.90
34837;DHT22;21053;50.848;4.652;2023-08-24T01:03:47;18.80;99.90
34837;DHT22;21053;50.848;4.652;2023-08-24T01:06:13;18.70;99.90
34837;DHT22;21053;50.848;4.652;2023-08-24T01:08:39;18.60;99.90
34837;DHT22;21053;50.848;4.652;2023-08-24T01:11:12;18.90;99.90
34837;DHT22;21053;50.848;4.652;2023-08-24T01:14:04;19.00;99.90
34837;DHT22;21053;50.848;4.652;2023-08-24T01:16:36;19.20;99.90
34837;DHT22;21053;50.848;4.652;2023-08-24T01:19:34;19.20;99.90
34837;DHT22;21053;50.848;4.652;2023-08-24T01:22:02;19.00;99.90
34837;DHT22;21053;50.848;4.652;2023-08-24T01:24:36;19.20;99.90
34837;DHT22;21053;50.848;4.652;2023-08-24T01:27:04;19.30;99.90
34837;DHT22;21053;50.848;4.652;2023-08-24T01:29:31;19.20;99.90
34837;DHT22;21053;50.848;4.652;2023-08-24T01:31:58;19.20;99.90
34837;DHT22;21053;50.848;4.652;2023-08-24T01:34:24;19.20;99.90
34837;DHT22;21053;50.848;4.652;2023-08-24T01:36:49;19.20;99.90
34837;DHT22;21053;50.848;4.652;2023-08-24T01:39:31;19.30;99.90
34837;DHT22;21053;50.848;4.652;2023-08-24T01:42:02;19.40;99.90
34837;DHT22;21053;50.848;4.652;2023-08-24T01:44:34;19.30;99.90
34837;DHT22;21053;50.848;4.652;2023-08-24T01:47:03;19.20;99.90
34837;DHT22;21053;50.848;4.652;2023-08-24T01:49:30;19.20;99.90
34837;DHT22;21053;50.848;4.652;2023-08-24T01:51:57;19.40;99.90
34837;DHT22;21053;50.848;4.652;2023-08-24T01:54:23;19.40;99.90
34837;DHT22;21053;50.848;4.652;2023-08-24T01:56:49;19.20;99.90
34837;DHT22;21053;50.848;4.652;2023-08-24T01:59:15;19.10;99.90
34837;DHT22;21053;50.848;4.652;2023-08-24T02:01:40;19.10;99.90
34837;DHT22;21053;50.848;4.652;2023-08-24T02:04:06;19.00;99.90
34837;DHT22;21053;50.848;4.652;2023-08-24T02:06:32;19.00;99.90
34837;DHT22;21053;50.848;4.652;2023-08-24T02:08:58;19.00;99.90
34837;DHT22;21053;50.848;4.652;2023-08-24T02:11:23;19.10;99.90
34837;DHT22;21053;50.848;4.652;2023-08-24T02:14:06;19.10;99.90
34837;DHT22;21053;50.848;4.652;2023-08-24T02:16:32;19.20;99.90
34837;DHT22;21053;50.848;4.652;2023-08-24T02:19:16;19.20;99.90
34837;DHT22;21053;50.848;4.652;2023-08-24T02:21:58;19.20;99.90
34837;DHT22;21053;50.848;4.652;2023-08-24T02:24:27;19.30;99.90
34837;DHT22;21053;50.848;4.652;2023-08-24T02:26:53;19.40;99.90
34837;DHT22;21053;50.848;4.652;2023-08-24T02:29:19;19.50;99.90
34837;DHT22;21053;50.848;4.652;2023-08-24T02:31:45;19.50;99.90
34837;DHT22;21053;50.848;4.652;2023-08-24T02:34:13;19.60;99.90
34837;DHT22;21053;50.848;4.652;2023-08-24T02:36:38;19.60;99.90
34837;DHT22;21053;50.848;4.652;2023-08-24T02:39:04;19.70;99.90
34837;DHT22;21053;50.848;4.652;2023-08-24T02:41:31;19.80;99.90
34837;DHT22;21053;50.848;4.652;2023-08-24T02:43:59;19.90;99.90
34837;DHT22;21053;50.848;4.652;2023-08-24T02:46:25;19.90;99.90
34837;DHT22;21053;50.848;4.652;2023-08-24T02:48:50;19.90;99.90
34837;DHT22;21053;50.848;4.652;2023-08-24T02:51:17;19.80;99.90
34837;DHT22;21053;50.848;4.652;2023-08-24T02:53:43;19.70;99.90
34837;DHT22;21053;50.848;4.652;2023-08-24T02:56:09;19.70;99.90
34837;DHT22;21053;50.848;4.652;2023-08-24T02:58:34;19.70;99.90
34837;DHT22;21053;50.848;4.652;2023-08-24T03:01:04;19.90;99.90
34837;DHT22;21053;50.848;4.652;2023-08-24T03:03:33;19.70;99.90
34837;DHT22;21053;50.848;4.652;2023-08-24T03:06:02;19.80;99.90
34837;DHT22;21053;50.848;4.652;2023-08-24T03:08:29;19.70;99.90
34837;DHT22;21053;50.848;4.652;2023-08-24T03:10:55;19.60;99.90
34837;DHT22;21053;50.848;4.652;2023-08-24T03:13:22;19.30;99.90
34837;DHT22;21053;50.848;4.652;2023-08-24T03:15:49;19.20;99.90
34837;DHT22;21053;50.848;4.652;2023-08-24T03:22:00;19.30;99.90
34837;DHT22;21053;50.848;4.652;2023-08-24T03:24:35;19.50;99.90
34837;DHT22;21053;50.848;4.652;2023-08-24T03:27:11;19.30;99.90
34837;DHT22;21053;50.848;4.652;2023-08-24T03:29:38;19.20;99.90
34837;DHT22;21053;50.848;4.652;2023-08-24T03:32:04;19.10;99.90
34837;DHT22;21053;50.848;4.652;2023-08-24T03:34:30;19.20;99.90
34837;DHT22;21053;50.848;4.652;2023-08-24T03:36:56;19.30;99.90
34837;DHT22;21053;50.848;4.652;2023-08-24T03:39:22;19.30;99.90
34837;DHT22;21053;50.848;4.652;2023-08-24T03:41:48;19.30;99.90
34837;DHT22;21053;50.848;4.652;2023-08-24T03:44:13;19.30;99.90
34837;DHT22;21053;50.848;4.652;2023-08-24T03:46:39;19.00;99.90
34837;DHT22;21053;50.848;4.652;2023-08-24T03:49:06;19.00;99.90
34837;DHT22;21053;50.848;4.652;2023-08-24T03:51:32;19.10;99.90
34837;DHT22;21053;50.848;4.652;2023-08-24T03:53:57;19.20;99.90
34837;DHT22;21053;50.848;4.652;2023-08-24T03:56:24;19.20;99.90
34837;DHT22;21053;50.848;4.652;2023-08-24T03:58:50;19.20;99.90
34837;DHT22;21053;50.848;4.652;2023-08-24T04:01:16;19.20;99.90
34837;DHT22;21053;50.848;4.652;2023-08-24T04:06:08;19.10;99.90
34837;DHT22;21053;50.848;4.652;2023-08-24T04:08:34;18.70;99.90
34837;DHT22;21053;50.848;4.652;2023-08-24T04:11:01;18.80;99.90
34837;DHT22;21053;50.848;4.652;2023-08-24T04:13:27;18.90;99.90
34837;DHT22;21053;50.848;4.652;2023-08-24T04:15:52;18.90;99.90
34837;DHT22;21053;50.848;4.652;2023-08-24T04:18:18;18.90;99.90
34837;DHT22;21053;50.848;4.652;2023-08-24T04:20:44;18.90;99.90
34837;DHT22;21053;50.848;4.652;2023-08-24T04:23:13;18.80;99.90
34837;DHT22;21053;50.848;4.652;2023-08-24T04:25:40;18.90;99.90
34837;DHT22;21053;50.848;4.652;2023-08-24T04:28:06;18.70;99.90
34837;DHT22;21053;50.848;4.652;2023-08-24T04:30:32;18.60;99.90
34837;DHT22;21053;50.848;4.652;2023-08-24T04:32:58;18.60;99.90
34837;DHT22;21053;50.848;4.652;2023-08-24T04:35:25;18.60;99.90
34837;DHT22;21053;50.848;4.652;2023-08-24T04:37:52;18.60;99.90
34837;DHT22;21053;50.848;4.652;2023-08-24T04:40:18;18.50;99.90
34837;DHT22;21053;50.848;4.652;2023-08-24T04:42:45;18.60;99.90
34837;DHT22;21053;50.848;4.652;2023-08-24T04:45:10;18.30;99.90
34837;DHT22;21053;50.848;4.652;2023-08-24T04:47:36;18.10;99.90
34837;DHT22;21053;50.848;4.652;2023-08-24T04:50:02;18.30;99.90
34837;DHT22;21053;50.848;4.652;2023-08-24T04:52:28;18.40;99.90
34837;DHT22;21053;50.848;4.652;2023-08-24T04:54:53;18.30;99.90
34837;DHT22;21053;50.848;4.652;2023-08-24T04:57:19;18.00;99.90
34837;DHT22;21053;50.848;4.652;2023-08-24T04:59:48;18.20;99.90
34837;DHT22;21053;50.848;4.652;2023-08-24T05:02:13;18.30;99.90
34837;DHT22;21053;50.848;4.652;2023-08-24T05:04:39;18.40;99.90
34837;DHT22;21053;50.848;4.652;2023-08-24T05:07:05;18.50;99.90
34837;DHT22;21053;50.848;4.652;2023-08-24T05:09:33;18.60;99.90
34837;DHT22;21053;50.848;4.652;2023-08-24T05:11:58;18.30;99.90
34837;DHT22;21053;50.848;4.652;2023-08-24T05:14:24;18.20;99.90
34837;DHT22;21053;50.848;4.652;2023-08-24T05:16:50;18.10;99.90
34837;DHT22;21053;50.848;4.652;2023-08-24T05:19:15;17.90;99.90
34837;DHT22;21053;50.848;4.652;2023-08-24T05:21:41;18.20;99.90
34837;DHT22;21053;50.848;4.652;2023-08-24T05:24:10;18.20;99.90
34837;DHT22;21053;50.848;4.652;2023-08-24T05:26:37;18.40;99.90
34837;DHT22;21053;50.848;4.652;2023-08-24T05:29:03;18.50;99.90
34837;DHT22;21053;50.848;4.652;2023-08-24T05:31:29;18.60;99.90
34837;DHT22;21053;50.848;4.652;2023-08-24T05:33:55;18.50;99.90
34837;DHT22;21053;50.848;4.652;2023-08-24T05:36:20;18.60;99.90
34837;DHT22;21053;50.848;4.652;2023-08-24T05:38:46;18.60;99.90
34837;DHT22;21053;50.848;4.652;2023-08-24T05:41:13;18.50;99.90
34837;DHT22;21053;50.848;4.652;2023-08-24T05:43:40;18.30;99.90
34837;DHT22;21053;50.848;4.652;2023-08-24T05:46:06;18.50;99.90
34837;DHT22;21053;50.848;4.652;2023-08-24T05:48:32;18.40;99.90
34837;DHT22;21053;50.848;4.652;2023-08-24T05:50:58;18.60;99.90
34837;DHT22;21053;50.848;4.652;2023-08-24T05:53:24;18.70;99.90
34837;DHT22;21053;50.848;4.652;2023-08-24T05:55:50;18.60;99.90
34837;DHT22;21053;50.848;4.652;2023-08-24T05:58:17;18.70;99.90
34837;DHT22;21053;50.848;4.652;2023-08-24T06:00:43;18.70;99.90
34837;DHT22;21053;50.848;4.652;2023-08-24T06:03:09;18.70;99.90
34837;DHT22;21053;50.848;4.652;2023-08-24T06:05:35;18.60;99.90
34837;DHT22;21053;50.848;4.652;2023-08-24T06:08:02;18.70;99.90
34837;DHT22;21053;50.848;4.652;2023-08-24T06:10:29;18.90;99.90
34837;DHT22;21053;50.848;4.652;2023-08-24T06:12:56;18.90;99.90
34837;DHT22;21053;50.848;4.652;2023-08-24T06:15:23;19.00;99.90
34837;DHT22;21053;50.848;4.652;2023-08-24T06:17:52;19.20;99.90
34837;DHT22;21053;50.848;4.652;2023-08-24T06:20:19;19.50;99.90
34837;DHT22;21053;50.848;4.652;2023-08-24T06:22:45;19.70;99.90
34837;DHT22;21053;50.848;4.652;2023-08-24T06:25:11;19.50;99.90
34837;DHT22;21053;50.848;4.652;2023-08-24T06:27:37;19.50;99.90
34837;DHT22;21053;50.848;4.652;2023-08-24T06:30:04;20.00;99.90
34837;DHT22;21053;50.848;4.652;2023-08-24T06:32:30;19.90;99.90
34837;DHT22;21053;50.848;4.652;2023-08-24T06:34:56;20.20;99.90
34837;DHT22;21053;50.848;4.652;2023-08-24T06:37:21;20.40;99.90
34837;DHT22;21053;50.848;4.652;2023-08-24T06:39:47;20.60;99.90
34837;DHT22;21053;50.848;4.652;2023-08-24T06:42:14;20.80;99.90
34837;DHT22;21053;50.848;4.652;2023-08-24T06:44:41;21.00;99.90
34837;DHT22;21053;50.848;4.652;2023-08-24T06:47:06;21.20;99.90
34837;DHT22;21053;50.848;4.652;2023-08-24T06:52:01;21.40;99.90
34837;DHT22;21053;50.848;4.652;2023-08-24T06:54:27;21.60;99.90
34837;DHT22;21053;50.848;4.652;2023-08-24T06:56:55;21.80;99.90
34837;DHT22;21053;50.848;4.652;2023-08-24T06:59:20;21.80;99.90
34837;DHT22;21053;50.848;4.652;2023-08-24T07:01:46;22.00;99.90
34837;DHT22;21053;50.848;4.652;2023-08-24T07:04:12;22.10;99.90
34837;DHT22;21053;50.848;4.652;2023-08-24T07:06:39;22.20;99.90
34837;DHT22;21053;50.848;4.652;2023-08-24T07:09:07;22.30;99.90
34837;DHT22;21053;50.848;4.652;2023-08-24T07:11:33;22.40;99.90
34837;DHT22;21053;50.848;4.652;2023-08-24T07:14:02;22.50;99.90
34837;DHT22;21053;50.848;4.652;2023-08-24T07:16:30;22.60;99.90
34837;DHT22;21053;50.848;4.652;2023-08-24T07:18:56;22.70;99.90
34837;DHT22;21053;50.848;4.652;2023-08-24T07:21:24;22.80;99.90
34837;DHT22;21053;50.848;4.652;2023-08-24T07:23:50;22.90;99.90
34837;DHT22;21053;50.848;4.652;2023-08-24T07:26:19;23.00;99.90
34837;DHT22;21053;50.848;4.652;2023-08-24T07:28:45;23.10;99.90
34837;DHT22;21053;50.848;4.652;2023-08-24T07:31:11;23.40;99.90
34837;DHT22;21053;50.848;4.652;2023-08-24T07:33:40;23.60;99.90
34837;DHT22;21053;50.848;4.652;2023-08-24T07:36:06;23.60;99.90
34837;DHT22;21053;50.848;4.652;2023-08-24T07:38:32;23.70;99.90
34837;DHT22;21053;50.848;4.652;2023-08-24T07:40:59;23.60;99.90
34837;DHT22;21053;50.848;4.652;2023-08-24T07:43:25;23.80;99.90
34837;DHT22;21053;50.848;4.652;2023-08-24T07:45:56;23.90;99.90
34837;DHT22;21053;50.848;4.652;2023-08-24T07:48:22;24.00;99.90
34837;DHT22;21053;50.848;4.652;2023-08-24T07:50:50;24.00;99.90
34837;DHT22;21053;50.848;4.652;2023-08-24T07:53:17;24.10;99.90
34837;DHT22;21053;50.848;4.652;2023-08-24T07:55:43;24.10;99.90
34837;DHT22;21053;50.848;4.652;2023-08-24T07:58:09;24.10;99.90
34837;DHT22;21053;50.848;4.652;2023-08-24T08:00:36;23.90;99.90
34837;DHT22;21053;50.848;4.652;2023-08-24T08:03:01;23.90;99.90
34837;DHT22;21053;50.848;4.652;2023-08-24T08:05:27;23.90;99.90
34837;DHT22;21053;50.848;4.652;2023-08-24T08:07:55;24.00;99.90
34837;DHT22;21053;50.848;4.652;2023-08-24T08:10:22;24.00;99.90
34837;DHT22;21053;50.848;4.652;2023-08-24T08:12:49;24.00;99.90
34837;DHT22;21053;50.848;4.652;2023-08-24T08:15:15;24.10;99.90
34837;DHT22;21053;50.848;4.652;2023-08-24T08:17:41;24.20;99.90
34837;DHT22;21053;50.848;4.652;2023-08-24T08:20:08;24.30;99.90
34837;DHT22;21053;50.848;4.652;2023-08-24T08:22:34;24.40;99.90
34837;DHT22;21053;50.848;4.652;2023-08-24T08:25:04;24.40;99.90
34837;DHT22;21053;50.848;4.652;2023-08-24T08:27:30;24.30;99.90
34837;DHT22;21053;50.848;4.652;2023-08-24T08:29:56;24.30;99.90
34837;DHT22;21053;50.848;4.652;2023-08-24T08:32:28;24.30;99.90
34837;DHT22;21053;50.848;4.652;2023-08-24T08:34:57;24.30;99.90
34837;DHT22;21053;50.848;4.652;2023-08-24T08:37:24;24.20;99.90
34837;DHT22;21053;50.848;4.652;2023-08-24T08:39:50;24.30;99.90
34837;DHT22;21053;50.848;4.652;2023-08-24T08:42:19;24.40;99.90
34837;DHT22;21053;50.848;4.652;2023-08-24T08:44:46;24.40;99.90
34837;DHT22;21053;50.848;4.652;2023-08-24T08:47:12;24.30;99.90
34837;DHT22;21053;50.848;4.652;2023-08-24T08:49:39;24.30;99.90
34837;DHT22;21053;50.848;4.652;2023-08-24T08:52:06;24.50;99.90
34837;DHT22;21053;50.848;4.652;2023-08-24T08:54:32;24.60;99.90
34837;DHT22;21053;50.848;4.652;2023-08-24T08:57:01;24.60;99.90
34837;DHT22;21053;50.848;4.652;2023-08-24T08:59:30;24.90;99.90
34837;DHT22;21053;50.848;4.652;2023-08-24T09:02:01;25.00;99.90
34837;DHT22;21053;50.848;4.652;2023-08-24T09:04:31;25.10;99.90
34837;DHT22;21053;50.848;4.652;2023-08-24T09:07:00;25.30;99.90
34837;DHT22;21053;50.848;4.652;2023-08-24T09:09:36;25.40;99.90
34837;DHT22;21053;50.848;4.652;2023-08-24T09:12:05;25.30;99.90
34837;DHT22;21053;50.848;4.652;2023-08-24T09:14:31;24.90;99.90
34837;DHT22;21053;50.848;4.652;2023-08-24T09:16:56;24.80;99.90
34837;DHT22;21053;50.848;4.652;2023-08-24T09:19:33;24.70;99.90
34837;DHT22;21053;50.848;4.652;2023-08-24T09:22:01;24.60;99.90
34837;DHT22;21053;50.848;4.652;2023-08-24T09:24:34;24.60;99.90
34837;DHT22;21053;50.848;4.652;2023-08-24T09:27:05;24.30;99.90
34837;DHT22;21053;50.848;4.652;2023-08-24T09:29:39;24.30;99.90
34837;DHT22;21053;50.848;4.652;2023-08-24T09:32:08;24.10;99.90
34837;DHT22;21053;50.848;4.652;2023-08-24T09:34:36;24.00;99.90
34837;DHT22;21053;50.848;4.652;2023-08-24T09:37:02;24.10;99.90
34837;DHT22;21053;50.848;4.652;2023-08-24T09:39:30;24.30;99.90
34837;DHT22;21053;50.848;4.652;2023-08-24T09:42:00;24.30;99.90
34837;DHT22;21053;50.848;4.652;2023-08-24T09:44:28;24.30;99.90
34837;DHT22;21053;50.848;4.652;2023-08-24T09:46:54;24.20;99.90
34837;DHT22;21053;50.848;4.652;2023-08-24T09:49:20;24.10;99.90
34837;DHT22;21053;50.848;4.652;2023-08-24T09:51:48;24.00;99.90
34837;DHT22;21053;50.848;4.652;2023-08-24T09:54:17;23.60;99.90
34837;DHT22;21053;50.848;4.652;2023-08-24T09:56:48;23.30;99.90
34837;DHT22;21053;50.848;4.652;2023-08-24T09:59:18;23.30;99.90
34837;DHT22;21053;50.848;4.652;2023-08-24T10:01:48;23.20;99.90
34837;DHT22;21053;50.848;4.652;2023-08-24T10:04:21;23.00;99.90
34837;DHT22;21053;50.848;4.652;2023-08-24T10:06:51;22.90;99.90
34837;DHT22;21053;50.848;4.652;2023-08-24T10:09:27;22.60;99.90
34837;DHT22;21053;50.848;4.652;2023-08-24T10:11:56;22.50;99.90
34837;DHT22;21053;50.848;4.652;2023-08-24T10:14:47;22.20;99.90
34837;DHT22;21053;50.848;4.652;2023-08-24T10:17:16;22.30;99.90
34837;DHT22;21053;50.848;4.652;2023-08-24T10:19:42;22.30;99.90
34837;DHT22;21053;50.848;4.652;2023-08-24T10:22:10;22.20;99.90
34837;DHT22;21053;50.848;4.652;2023-08-24T10:24:37;22.20;99.90
34837;DHT22;21053;50.848;4.652;2023-08-24T10:27:03;22.30;99.90
34837;DHT22;21053;50.848;4.652;2023-08-24T10:29:30;22.20;99.90
34837;DHT22;21053;50.848;4.652;2023-08-24T10:31:57;22.20;99.90
34837;DHT22;21053;50.848;4.652;2023-08-24T10:34:25;22.30;99.90
34837;DHT22;21053;50.848;4.652;2023-08-24T10:36:50;22.40;99.90
34837;DHT22;21053;50.848;4.652;2023-08-24T10:39:17;22.30;99.90
34837;DHT22;21053;50.848;4.652;2023-08-24T10:41:49;22.30;99.90
34837;DHT22;21053;50.848;4.652;2023-08-24T10:44:24;22.30;99.90
34837;DHT22;21053;50.848;4.652;2023-08-24T10:49:42;22.20;99.90
34837;DHT22;21053;50.848;4.652;2023-08-24T10:52:35;22.30;99.90
34837;DHT22;21053;50.848;4.652;2023-08-24T10:55:03;22.30;99.90
34837;DHT22;21053;50.848;4.652;2023-08-24T10:57:38;22.20;99.90
34837;DHT22;21053;50.848;4.652;2023-08-24T11:00:09;22.20;99.90
34837;DHT22;21053;50.848;4.652;2023-08-24T11:05:25;22.60;99.90
34837;DHT22;21053;50.848;4.652;2023-08-24T11:08:00;22.60;99.90
34837;DHT22;21053;50.848;4.652;2023-08-24T11:10:57;22.60;99.90
34837;DHT22;21053;50.848;4.652;2023-08-24T11:13:23;22.70;99.90
34837;DHT22;21053;50.848;4.652;2023-08-24T11:15:50;22.70;99.90
34837;DHT22;21053;50.848;4.652;2023-08-24T11:18:25;22.80;99.90
34837;DHT22;21053;50.848;4.652;2023-08-24T11:20:56;22.80;99.90
34837;DHT22;21053;50.848;4.652;2023-08-24T11:23:23;22.90;99.90
34837;DHT22;21053;50.848;4.652;2023-08-24T11:25:53;22.70;99.90
34837;DHT22;21053;50.848;4.652;2023-08-24T11:28:27;22.70;99.90
34837;DHT22;21053;50.848;4.652;2023-08-24T11:30:55;22.90;99.90
34837;DHT22;21053;50.848;4.652;2023-08-24T11:33:32;22.70;99.90
34837;DHT22;21053;50.848;4.652;2023-08-24T11:35:59;22.80;99.90
34837;DHT22;21053;50.848;4.652;2023-08-24T11:38:36;22.80;99.90
34837;DHT22;21053;50.848;4.652;2023-08-24T11:41:14;22.80;99.90
34837;DHT22;21053;50.848;4.652;2023-08-24T11:43:41;23.00;99.90
34837;DHT22;21053;50.848;4.652;2023-08-24T11:46:07;22.70;99.90
34837;DHT22;21053;50.848;4.652;2023-08-24T11:51:08;23.00;99.90
34837;DHT22;21053;50.848;4.652;2023-08-24T11:53:37;22.80;99.90
34837;DHT22;21053;50.848;4.652;2023-08-24T11:56:03;22.90;99.90
34837;DHT22;21053;50.848;4.652;2023-08-24T11:58:32;23.10;99.90
34837;DHT22;21053;50.848;4.652;2023-08-24T12:00:59;22.80;99.90
34837;DHT22;21053;50.848;4.652;2023-08-24T12:03:26;23.00;99.90
34837;DHT22;21053;50.848;4.652;2023-08-24T12:05:52;23.00;99.90
34837;DHT22;21053;50.848;4.652;2023-08-24T12:08:18;23.00;99.90
34837;DHT22;21053;50.848;4.652;2023-08-24T12:10:44;23.00;99.90
34837;DHT22;21053;50.848;4.652;2023-08-24T12:13:12;23.00;99.90
34837;DHT22;21053;50.848;4.652;2023-08-24T12:15:38;23.00;99.90
34837;DHT22;21053;50.848;4.652;2023-08-24T12:18:13;23.00;99.90
34837;DHT22;21053;50.848;4.652;2023-08-24T12:20:43;23.00;99.90
34837;DHT22;21053;50.848;4.652;2023-08-24T12:23:10;23.00;99.90
34837;DHT22;21053;50.848;4.652;2023-08-24T12:25:43;23.00;99.90
34837;DHT22;21053;50.848;4.652;2023-08-24T12:28:14;23.00;99.90
34837;DHT22;21053;50.848;4.652;2023-08-24T12:30:50;23.00;99.90
34837;DHT22;21053;50.848;4.652;2023-08-24T12:33:28;23.00;99.90
34837;DHT22;21053;50.848;4.652;2023-08-24T12:35:54;23.00;99.90
34837;DHT22;21053;50.848;4.652;2023-08-24T12:38:23;22.80;99.90
34837;DHT22;21053;50.848;4.652;2023-08-24T12:40:49;22.70;99.90
34837;DHT22;21053;50.848;4.652;2023-08-24T12:43:15;22.70;99.90
34837;DHT22;21053;50.848;4.652;2023-08-24T12:45:41;22.60;99.90
34837;DHT22;21053;50.848;4.652;2023-08-24T12:48:07;22.60;99.90
34837;DHT22;21053;50.848;4.652;2023-08-24T12:50:34;22.30;99.90
34837;DHT22;21053;50.848;4.652;2023-08-24T12:53:00;22.30;99.90
34837;DHT22;21053;50.848;4.652;2023-08-24T12:55:29;22.30;99.90
34837;DHT22;21053;50.848;4.652;2023-08-24T12:57:55;22.30;99.90
34837;DHT22;21053;50.848;4.652;2023-08-24T13:00:21;22.10;99.90
34837;DHT22;21053;50.848;4.652;2023-08-24T13:02:50;22.00;99.90
34837;DHT22;21053;50.848;4.652;2023-08-24T13:05:17;21.90;99.90
34837;DHT22;21053;50.848;4.652;2023-08-24T13:07:43;21.90;99.90
34837;DHT22;21053;50.848;4.652;2023-08-24T13:10:09;21.90;99.90
34837;DHT22;21053;50.848;4.652;2023-08-24T13:12:36;21.80;99.90
34837;DHT22;21053;50.848;4.652;2023-08-24T13:15:03;21.80;99.90
34837;DHT22;21053;50.848;4.652;2023-08-24T13:17:32;21.70;99.90
34837;DHT22;21053;50.848;4.652;2023-08-24T13:20:00;21.60;99.90
34837;DHT22;21053;50.848;4.652;2023-08-24T13:22:26;21.70;99.90
34837;DHT22;21053;50.848;4.652;2023-08-24T13:24:52;21.60;99.90
34837;DHT22;21053;50.848;4.652;2023-08-24T13:27:18;21.60;99.90
34837;DHT22;21053;50.848;4.652;2023-08-24T13:29:44;21.60;99.90
34837;DHT22;21053;50.848;4.652;2023-08-24T13:32:11;21.60;99.90
34837;DHT22;21053;50.848;4.652;2023-08-24T13:34:38;21.60;99.90
34837;DHT22;21053;50.848;4.652;2023-08-24T13:37:04;21.40;99.90
34837;DHT22;21053;50.848;4.652;2023-08-24T13:39:30;21.50;99.90
34837;DHT22;21053;50.848;4.652;2023-08-24T13:41:57;21.50;99.90
34837;DHT22;21053;50.848;4.652;2023-08-24T13:44:24;21.50;99.90
34837;DHT22;21053;50.848;4.652;2023-08-24T13:46:51;21.30;99.90
34837;DHT22;21053;50.848;4.652;2023-08-24T13:49:19;21.40;99.90
34837;DHT22;21053;50.848;4.652;2023-08-24T13:51:45;21.40;99.90
34837;DHT22;21053;50.848;4.652;2023-08-24T13:54:18;21.40;99.90
34837;DHT22;21053;50.848;4.652;2023-08-24T13:56:46;21.50;99.90
34837;DHT22;21053;50.848;4.652;2023-08-24T13:59:13;21.60;99.90
34837;DHT22;21053;50.848;4.652;2023-08-24T14:01:40;21.50;99.90
34837;DHT22;21053;50.848;4.652;2023-08-24T14:04:06;21.60;99.90
34837;DHT22;21053;50.848;4.652;2023-08-24T14:06:33;21.60;99.90
34837;DHT22;21053;50.848;4.652;2023-08-24T14:09:00;21.70;99.90
34837;DHT22;21053;50.848;4.652;2023-08-24T14:11:28;21.70;99.90
34837;DHT22;21053;50.848;4.652;2023-08-24T14:13:54;21.80;99.90
34837;DHT22;21053;50.848;4.652;2023-08-24T14:16:21;21.70;99.90
34837;DHT22;21053;50.848;4.652;2023-08-24T14:18:48;21.80;99.90
34837;DHT22;21053;50.848;4.652;2023-08-24T14:21:16;21.70;99.90
34837;DHT22;21053;50.848;4.652;2023-08-24T14:23:42;21.60;99.90
34837;DHT22;21053;50.848;4.652;2023-08-24T14:26:09;21.60;99.90
34837;DHT22;21053;50.848;4.652;2023-08-24T14:28:55;21.60;99.90
34837;DHT22;21053;50.848;4.652;2023-08-24T14:31:24;21.60;99.90
34837;DHT22;21053;50.848;4.652;2023-08-24T14:33:51;21.70;99.90
34837;DHT22;21053;50.848;4.652;2023-08-24T14:36:19;21.80;99.90
34837;DHT22;21053;50.848;4.652;2023-08-24T14:38:46;21.70;99.90
34837;DHT22;21053;50.848;4.652;2023-08-24T14:41:14;21.80;99.90
34837;DHT22;21053;50.848;4.652;2023-08-24T14:43:41;21.90;99.90
34837;DHT22;21053;50.848;4.652;2023-08-24T14:46:08;22.00;99.90
34837;DHT22;21053;50.848;4.652;2023-08-24T14:48:34;21.90;99.90
34837;DHT22;21053;50.848;4.652;2023-08-24T14:51:00;21.90;99.90
34837;DHT22;21053;50.848;4.652;2023-08-24T14:53:27;21.90;99.90
34837;DHT22;21053;50.848;4.652;2023-08-24T14:55:58;22.00;99.90
34837;DHT22;21053;50.848;4.652;2023-08-24T14:58:26;22.10;99.90
34837;DHT22;21053;50.848;4.652;2023-08-24T15:00:56;22.10;99.90
34837;DHT22;21053;50.848;4.652;2023-08-24T15:03:24;22.10;99.90
34837;DHT22;21053;50.848;4.652;2023-08-24T15:06:00;22.30;99.90
34837;DHT22;21053;50.848;4.652;2023-08-24T15:08:28;22.30;99.90
34837;DHT22;21053;50.848;4.652;2023-08-24T15:10:55;22.50;99.90
34837;DHT22;21053;50.848;4.652;2023-08-24T15:13:22;22.60;99.90
34837;DHT22;21053;50.848;4.652;2023-08-24T15:15:48;22.60;99.90
34837;DHT22;21053;50.848;4.652;2023-08-24T15:18:14;22.60;99.90
34837;DHT22;21053;50.848;4.652;2023-08-24T15:20:40;22.60;99.90
34837;DHT22;21053;50.848;4.652;2023-08-24T15:23:08;22.70;99.90
34837;DHT22;21053;50.848;4.652;2023-08-24T15:28:00;22.80;99.90
34837;DHT22;21053;50.848;4.652;2023-08-24T15:30:26;22.80;99.90
34837;DHT22;21053;50.848;4.652;2023-08-24T15:32:54;22.80;99.90
34837;DHT22;21053;50.848;4.652;2023-08-24T15:35:21;22.70;99.90
34837;DHT22;21053;50.848;4.652;2023-08-24T15:37:46;22.80;99.90
34837;DHT22;21053;50.848;4.652;2023-08-24T15:40:13;22.90;99.90
34837;DHT22;21053;50.848;4.652;2023-08-24T15:42:41;23.00;99.90
34837;DHT22;21053;50.848;4.652;2023-08-24T15:45:07;23.10;99.90
34837;DHT22;21053;50.848;4.652;2023-08-24T15:47:34;23.10;99.90
34837;DHT22;21053;50.848;4.652;2023-08-24T15:50:00;23.10;99.90
34837;DHT22;21053;50.848;4.652;2023-08-24T15:52:27;23.10;99.90